Time;durP1;ratioP1;P1;durP2;ratioP2;P2;SDS_P1;SDS_P2;PMS_P1;PMS_P2;Temp;Humidity;BMP_temperature;BMP_pressure;BME280_temperature;BME280_humidity;BME280_pressure;Samples;Min_cycle;Max_cycle;Signal;HPM_P1;HPM_P2
2023/01/12 00:00:00;;;;;;;22.50;15.10;;;;;19.60;99971.00;;;;2070383;28;20278;-52
2023/01/12 00:01:05;;;;;;;19.80;14.00;;;;;19.60;99974.00;;;;2070240;28;20206;-52
2023/01/12 00:02:06;;;;;;;19.52;14.68;;;;;19.60;99975.00;;;;2069576;28;20312;-52
2023/01/12 00:03:06;;;;;;;19.87;14.10;;;;;19.60;99973.00;;;;2070812;28;20248;-52
2023/01/12 00:04:07;;;;;;;22.20;14.47;;;;;19.50;99973.00;;;;2075505;28;20472;-52
2023/01/12 00:05:07;;;;;;;21.90;14.23;;;;;19.50;99975.00;;;;2078973;28;20271;-52
2023/01/12 00:06:08;;;;;;;19.43;14.00;;;;;19.60;99969.00;;;;2075906;28;20950;-52
2023/01/12 00:07:10;;;;;;;21.03;13.53;;;;;19.50;99969.00;;;;2069894;28;20231;-52
2023/01/12 00:08:10;;;;;;;16.98;12.85;;;;;19.50;99966.00;;;;2070007;28;20465;-52
2023/01/12 00:09:10;;;;;;;18.00;12.23;;;;;19.50;99963.00;;;;2070852;28;20229;-53
2023/01/12 00:10:11;;;;;;;18.10;12.23;;;;;19.50;99963.00;;;;2070406;28;20210;-52
2023/01/12 00:11:11;;;;;;;18.53;12.40;;;;;19.50;99965.00;;;;2070731;28;20206;-53
2023/01/12 00:12:12;;;;;;;21.27;13.13;;;;;19.60;99964.00;;;;2068872;28;20210;-52
2023/01/12 00:13:12;;;;;;;19.40;11.50;;;;;19.60;99960.00;;;;2070012;28;20210;-52
2023/01/12 00:14:12;;;;;;;18.60;11.07;;;;;19.50;99952.00;;;;2070748;28;20241;-52
2023/01/12 00:15:13;;;;;;;16.87;11.00;;;;;19.50;99963.00;;;;2070522;28;20218;-53
2023/01/12 00:16:33;;;;;;;16.20;10.73;;;;;19.50;99957.00;;;;2078627;28;20267;-52
2023/01/12 00:17:34;;;;;;;17.52;12.27;;;;;19.50;99958.00;;;;2078674;28;20212;-53
2023/01/12 00:18:34;;;;;;;16.07;10.63;;;;;19.50;99963.00;;;;2078979;28;20221;-52
2023/01/12 00:19:37;;;;;;;18.13;12.10;;;;;19.50;99957.00;;;;2078825;28;20271;-52
2023/01/12 00:20:37;;;;;;;14.32;10.15;;;;;19.50;99960.00;;;;2075798;28;20217;-52
2023/01/12 00:21:49;;;;;;;15.57;10.60;;;;;19.50;99972.00;;;;2077177;28;20212;-53
2023/01/12 00:22:49;;;;;;;15.15;10.63;;;;;19.50;99941.00;;;;2078720;28;20267;-53
2023/01/12 00:23:49;;;;;;;14.53;9.57;;;;;19.50;99961.00;;;;2077971;28;20213;-52
2023/01/12 00:24:51;;;;;;;16.17;9.40;;;;;19.40;99965.00;;;;2072780;28;20717;-53
2023/01/12 00:25:53;;;;;;;14.55;9.00;;;;;19.40;99955.00;;;;2070314;28;20225;-52
2023/01/12 00:26:53;;;;;;;18.70;9.63;;;;;19.40;99949.00;;;;2070671;28;20218;-52
2023/01/12 00:27:54;;;;;;;16.73;10.50;;;;;19.40;99952.00;;;;2070724;28;20289;-52
2023/01/12 00:28:54;;;;;;;14.33;8.63;;;;;19.40;99946.00;;;;2070929;28;20222;-53
2023/01/12 00:29:54;;;;;;;16.70;9.77;;;;;19.40;99963.00;;;;2070572;28;20400;-53
2023/01/12 00:31:01;;;;;;;13.13;8.33;;;;;19.40;99968.00;;;;2070290;28;20218;-52
2023/01/12 00:32:02;;;;;;;15.55;8.65;;;;;19.40;99966.00;;;;2074236;28;20213;-52
2023/01/12 00:33:02;;;;;;;13.90;8.57;;;;;19.40;99969.00;;;;2078359;28;20301;-56
2023/01/12 00:34:02;;;;;;;12.77;8.17;;;;;19.40;99967.00;;;;2078696;28;20220;-56
2023/01/12 00:35:03;;;;;;;12.00;7.60;;;;;19.40;99959.00;;;;2078128;28;20221;-55
2023/01/12 00:36:04;;;;;;;13.30;8.20;;;;;19.40;99949.00;;;;2078750;28;20263;-52
2023/01/12 00:37:05;;;;;;;12.55;8.65;;;;;19.40;99955.00;;;;2078230;28;20245;-53
2023/01/12 00:38:05;;;;;;;12.53;7.50;;;;;19.40;99952.00;;;;2078260;28;20213;-52
2023/01/12 00:39:06;;;;;;;11.97;8.13;;;;;19.40;99955.00;;;;2078609;28;20237;-52
2023/01/12 00:40:08;;;;;;;12.70;8.20;;;;;19.40;99944.00;;;;2078674;28;20220;-53
2023/01/12 00:41:11;;;;;;;11.82;7.00;;;;;19.40;99949.00;;;;2078517;28;20221;-54
2023/01/12 00:46:08;;;;;;;10.15;6.93;;;;;19.40;99939.00;;;;2071934;28;20209;-52
2023/01/12 00:47:09;;;;;;;13.13;6.90;;;;;19.30;99935.00;;;;2070332;28;20210;-52
2023/01/12 00:48:11;;;;;;;11.90;7.27;;;;;19.40;99962.00;;;;2069681;28;20245;-53
2023/01/12 00:49:11;;;;;;;12.00;6.93;;;;;19.40;99954.00;;;;2069822;28;20206;-52
2023/01/12 00:50:13;;;;;;;10.50;6.97;;;;;19.40;99943.00;;;;2070193;28;20261;-52
2023/01/12 00:51:13;;;;;;;9.35;6.18;;;;;19.40;99950.00;;;;2070611;28;20221;-53
2023/01/12 00:52:15;;;;;;;10.13;6.37;;;;;19.40;99954.00;;;;2076234;28;20252;-52
2023/01/12 00:53:15;;;;;;;9.80;6.43;;;;;19.40;99960.00;;;;2077729;28;20301;-52
2023/01/12 00:54:16;;;;;;;9.10;5.67;;;;;19.30;99938.00;;;;2078452;28;20332;-52
2023/01/12 00:55:16;;;;;;;11.70;6.43;;;;;19.30;99948.00;;;;2077968;28;20221;-52
2023/01/12 00:56:17;;;;;;;10.70;6.60;;;;;19.30;99933.00;;;;2078294;28;20279;-52
2023/01/12 00:57:18;;;;;;;9.80;6.43;;;;;19.30;99949.00;;;;2078661;28;21122;-52
2023/01/12 00:58:18;;;;;;;10.25;5.88;;;;;19.30;99943.00;;;;2078450;28;20212;-53
2023/01/12 00:59:18;;;;;;;9.70;5.83;;;;;19.30;99939.00;;;;2078735;28;20285;-52
2023/01/12 01:00:19;;;;;;;9.90;6.10;;;;;19.30;99937.00;;;;2078131;28;20210;-52
2023/01/12 01:01:19;;;;;;;8.20;5.20;;;;;19.30;99946.00;;;;2077014;28;20205;-52
2023/01/12 01:02:19;;;;;;;10.83;5.97;;;;;19.30;99942.00;;;;2069152;28;20202;-53
2023/01/12 01:03:20;;;;;;;8.80;5.63;;;;;19.30;99944.00;;;;2068621;28;20233;-52
2023/01/12 01:04:20;;;;;;;10.07;6.40;;;;;19.30;99934.00;;;;2070840;28;20203;-52
2023/01/12 01:05:21;;;;;;;8.53;5.20;;;;;19.30;99940.00;;;;2078418;28;20202;-53
2023/01/12 01:06:21;;;;;;;8.47;5.03;;;;;19.30;99948.00;;;;2076000;28;20204;-53
2023/01/12 01:07:21;;;;;;;6.60;4.63;;;;;19.20;99938.00;;;;2070250;28;20280;-53
2023/01/12 01:08:22;;;;;;;9.70;5.37;;;;;19.30;99963.00;;;;2077787;28;20228;-52
2023/01/12 01:09:22;;;;;;;8.40;5.43;;;;;19.30;99959.00;;;;2080135;28;20403;-53
2023/01/12 01:10:22;;;;;;;9.60;5.23;;;;;19.30;99954.00;;;;2079725;28;20216;-53
2023/01/12 01:11:23;;;;;;;9.20;5.57;;;;;19.20;99959.00;;;;2080181;28;20209;-52
2023/01/12 01:12:23;;;;;;;9.07;5.57;;;;;19.20;99960.00;;;;2078623;28;20201;-52
2023/01/12 01:13:23;;;;;;;7.00;5.10;;;;;19.30;99951.00;;;;2079330;28;21314;-52
2023/01/12 01:14:24;;;;;;;6.90;5.03;;;;;19.20;99957.00;;;;2078767;28;20636;-52
2023/01/12 01:15:24;;;;;;;10.63;5.00;;;;;19.20;99949.00;;;;2080226;28;20898;-53
2023/01/12 01:16:25;;;;;;;6.40;4.50;;;;;19.30;99947.00;;;;2080028;28;21093;-53
2023/01/12 01:17:27;;;;;;;7.00;4.90;;;;;19.20;99947.00;;;;2072094;28;20526;-53
2023/01/12 01:18:27;;;;;;;7.47;4.45;;;;;19.20;99967.00;;;;2071845;28;20282;-52
2023/01/12 01:19:28;;;;;;;8.37;4.87;;;;;19.20;99959.00;;;;2071100;28;20727;-53
2023/01/12 01:20:30;;;;;;;7.70;4.80;;;;;19.20;99951.00;;;;2071832;28;25717;-52
2023/01/12 01:21:32;;;;;;;8.00;4.45;;;;;19.20;99957.00;;;;2076131;28;20233;-52
2023/01/12 01:22:32;;;;;;;7.38;4.68;;;;;19.20;99958.00;;;;2078329;28;20218;-52
2023/01/12 01:23:33;;;;;;;9.17;4.90;;;;;19.10;99966.00;;;;2079758;28;20250;-53
2023/01/12 01:24:34;;;;;;;7.53;4.68;;;;;19.20;99951.00;;;;2064912;28;20236;-52
2023/01/12 01:25:34;;;;;;;6.63;4.23;;;;;19.20;99956.00;;;;2063037;28;20679;-52
2023/01/12 01:26:34;;;;;;;8.63;4.70;;;;;19.20;99955.00;;;;2071693;28;20580;-52
2023/01/12 01:27:35;;;;;;;9.07;4.90;;;;;19.20;99946.00;;;;2072034;28;20772;-52
2023/01/12 01:28:35;;;;;;;7.43;4.40;;;;;19.10;99960.00;;;;2072117;28;21047;-52
2023/01/12 01:29:36;;;;;;;6.03;3.83;;;;;19.20;99967.00;;;;2075499;28;20705;-52
2023/01/12 01:30:36;;;;;;;5.53;3.20;;;;;19.20;99947.00;;;;2078846;28;20691;-52
2023/01/12 01:31:36;;;;;;;6.03;3.80;;;;;19.10;99960.00;;;;2080079;28;20210;-52
2023/01/12 01:32:37;;;;;;;8.37;4.33;;;;;19.10;99956.00;;;;2077854;28;20221;-52
2023/01/12 01:33:37;;;;;;;6.70;3.90;;;;;19.10;99957.00;;;;2079722;28;20344;-52
2023/01/12 01:34:38;;;;;;;8.20;4.80;;;;;19.10;99954.00;;;;2079540;28;20283;-52
2023/01/12 01:35:38;;;;;;;7.47;4.43;;;;;19.20;99951.00;;;;2079390;28;20681;-52
2023/01/12 01:36:38;;;;;;;7.80;5.03;;;;;19.10;99945.00;;;;2079931;28;20561;-52
2023/01/12 01:37:39;;;;;;;5.20;3.17;;;;;19.10;99958.00;;;;2079743;28;20716;-52
2023/01/12 01:38:39;;;;;;;6.40;3.53;;;;;19.10;99947.00;;;;2080004;28;20217;-53
2023/01/12 01:39:39;;;;;;;7.27;3.50;;;;;19.10;99946.00;;;;2079381;28;20241;-53
2023/01/12 01:40:41;;;;;;;4.53;3.27;;;;;19.10;99951.00;;;;2075560;28;20301;-52
2023/01/12 01:41:41;;;;;;;5.82;3.38;;;;;19.10;99951.00;;;;2071701;28;20210;-52
2023/01/12 01:42:41;;;;;;;6.73;3.70;;;;;19.10;99940.00;;;;2075876;28;20634;-52
2023/01/12 01:43:57;;;;;;;5.60;3.50;;;;;19.10;99943.00;;;;2078874;28;20220;-52
2023/01/12 01:44:58;;;;;;;6.70;3.40;;;;;19.10;99944.00;;;;2079490;28;20700;-52
2023/01/12 01:46:06;;;;;;;5.83;3.50;;;;;19.10;99941.00;;;;2071067;28;20237;-52
2023/01/12 01:47:09;;;;;;;7.88;3.90;;;;;19.10;99938.00;;;;2072143;28;20221;-52
2023/01/12 01:48:11;;;;;;;6.30;3.78;;;;;19.10;99943.00;;;;2066732;28;20215;-53
2023/01/12 01:49:36;;;;;;;6.53;3.50;;;;;19.10;99949.00;;;;2063364;28;20794;-52
2023/01/12 01:50:37;;;;;;;6.40;3.90;;;;;19.10;99940.00;;;;2079150;28;20213;-53
2023/01/12 01:51:37;;;;;;;7.75;3.70;;;;;19.10;99929.00;;;;2079152;28;20316;-52
2023/01/12 01:52:39;;;;;;;7.70;3.43;;;;;19.10;99931.00;;;;2067479;28;20727;-52
2023/01/12 01:53:40;;;;;;;4.85;3.30;;;;;19.10;99929.00;;;;2062946;28;20266;-52
2023/01/12 01:54:44;;;;;;;8.38;3.30;;;;;19.10;99937.00;;;;2071070;28;20210;-52
2023/01/12 01:55:50;;;;;;;5.93;4.00;;;;;19.10;99928.00;;;;2067387;28;20222;-54
2023/01/12 01:56:52;;;;;;;7.32;2.95;;;;;19.10;99934.00;;;;2068100;28;20593;-52
2023/01/12 01:58:06;;;;;;;5.78;3.00;;;;;19.10;99929.00;;;;2070845;28;20228;-52
2023/01/12 01:59:09;;;;;;;6.38;3.28;;;;;19.10;99927.00;;;;2079325;28;20213;-52
2023/01/12 02:00:09;;;;;;;6.00;3.25;;;;;19.10;99919.00;;;;2079450;28;20220;-52
2023/01/12 02:01:10;;;;;;;6.67;3.37;;;;;19.10;99920.00;;;;2077539;28;20558;-52
2023/01/12 02:02:10;;;;;;;4.60;3.20;;;;;19.10;99923.00;;;;2069906;28;20633;-52
2023/01/12 02:03:10;;;;;;;5.40;2.57;;;;;19.10;99914.00;;;;2071469;28;20630;-52
2023/01/12 02:04:11;;;;;;;6.27;3.30;;;;;19.00;99919.00;;;;2070924;28;20248;-52
2023/01/12 02:05:12;;;;;;;6.03;3.20;;;;;19.00;99936.00;;;;2063382;28;20259;-52
2023/01/12 02:06:13;;;;;;;6.00;2.53;;;;;19.00;99907.00;;;;2073313;28;20213;-52
2023/01/12 02:07:13;;;;;;;5.97;2.57;;;;;19.00;99909.00;;;;2068379;28;20339;-52
2023/01/12 02:08:18;;;;;;;7.33;3.10;;;;;19.00;99898.00;;;;2070072;28;20213;-52
2023/01/12 02:09:25;;;;;;;5.82;3.28;;;;;19.00;99904.00;;;;2078896;28;20220;-51
2023/01/12 02:10:26;;;;;;;4.50;2.45;;;;;19.00;99918.00;;;;2078936;28;20210;-52
2023/01/12 02:17:04;;;;;;;5.28;2.53;;;;;19.00;99891.00;;;;2079271;28;20209;-53
2023/01/12 02:18:30;;;;;;;5.43;2.40;;;;;19.00;99881.00;;;;2066306;28;20226;-51
2023/01/12 02:19:36;;;;;;;5.82;2.90;;;;;19.00;99901.00;;;;2068644;28;20249;-52
2023/01/12 02:21:01;;;;;;;5.40;2.65;;;;;19.00;99892.00;;;;2068548;28;20214;-51
2023/01/12 02:22:43;;;;;;;6.40;3.20;;;;;19.00;99890.00;;;;2076438;28;20281;-52
2023/01/12 02:23:58;;;;;;;6.03;2.50;;;;;19.00;99884.00;;;;2061487;28;20345;-52
2023/01/12 02:25:23;;;;;;;7.80;2.70;;;;;19.00;99889.00;;;;2074682;28;20210;-52
2023/01/12 02:26:51;;;;;;;6.50;2.92;;;;;19.00;99878.00;;;;2076424;28;20220;-52
2023/01/12 02:28:09;;;;;;;4.65;2.40;;;;;19.00;99878.00;;;;2068381;28;20336;-52
2023/01/12 02:29:22;;;;;;;6.40;2.65;;;;;19.00;99880.00;;;;2070493;28;20690;-51
2023/01/12 02:30:56;;;;;;;5.60;2.40;;;;;19.00;99883.00;;;;2073816;28;20220;-52
2023/01/12 02:31:57;;;;;;;4.82;2.30;;;;;19.00;99879.00;;;;2077952;28;20687;-52
2023/01/12 02:33:20;;;;;;;3.60;1.97;;;;;18.90;99885.00;;;;2079693;28;20224;-52
2023/01/12 02:34:38;;;;;;;4.90;2.17;;;;;19.00;99873.00;;;;2078049;28;20217;-57
2023/01/12 02:35:43;;;;;;;6.63;2.70;;;;;19.00;99868.00;;;;2074102;28;20216;-52
2023/01/12 02:37:07;;;;;;;5.28;2.65;;;;;19.00;99869.00;;;;2072280;28;20822;-52
2023/01/12 02:38:23;;;;;;;6.07;2.28;;;;;19.00;99876.00;;;;2073881;28;20217;-53
2023/01/12 02:39:26;;;;;;;6.60;2.60;;;;;19.00;99865.00;;;;2075106;28;20217;-52
2023/01/12 02:40:49;;;;;;;5.43;2.20;;;;;18.90;99864.00;;;;2072127;28;20317;-52
2023/01/12 02:43:22;;;;;;;4.88;2.47;;;;;18.90;99863.00;;;;2074117;28;20768;-52
2023/01/12 02:44:32;;;;;;;6.55;2.75;;;;;18.90;99858.00;;;;2078572;28;20732;-52
2023/01/12 02:45:56;;;;;;;6.95;2.35;;;;;18.90;99873.00;;;;2079441;28;20684;-53
2023/01/12 02:46:56;;;;;;;5.70;2.30;;;;;18.90;99868.00;;;;2078504;28;20457;-52
2023/01/12 02:48:24;;;;;;;4.77;2.70;;;;;18.90;99854.00;;;;2070812;28;20218;-52
2023/01/12 02:49:26;;;;;;;4.80;2.28;;;;;18.90;99867.00;;;;2078676;28;20226;-51
2023/01/12 02:50:48;;;;;;;5.90;2.70;;;;;18.90;99850.00;;;;2070204;28;20244;-52
2023/01/12 02:51:51;;;;;;;4.25;2.10;;;;;18.90;99855.00;;;;2064707;28;20232;-52
2023/01/12 02:52:55;;;;;;;5.05;2.22;;;;;18.90;99853.00;;;;2062743;28;20278;-52
2023/01/12 02:54:01;;;;;;;5.72;2.95;;;;;18.90;99856.00;;;;2062724;28;20225;-52
2023/01/12 02:55:02;;;;;;;4.55;1.95;;;;;18.90;99848.00;;;;2062575;28;20309;-52
2023/01/12 02:56:03;;;;;;;5.43;2.10;;;;;18.90;99856.00;;;;2054421;28;20285;-52
2023/01/12 02:57:05;;;;;;;2.95;1.65;;;;;18.90;99848.00;;;;2053254;28;20304;-52
2023/01/12 02:58:05;;;;;;;4.35;2.10;;;;;18.90;99850.00;;;;2052342;28;20322;-52
2023/01/12 02:59:08;;;;;;;4.17;2.20;;;;;18.90;99826.00;;;;2062671;28;20764;-52
2023/01/12 03:00:09;;;;;;;5.65;2.00;;;;;18.90;99837.00;;;;2055196;28;20219;-52
2023/01/12 03:01:09;;;;;;;4.43;2.67;;;;;18.80;99849.00;;;;2067941;28;20301;-52
2023/01/12 03:02:15;;;;;;;5.63;2.20;;;;;18.90;99838.00;;;;2062512;28;20582;-52
2023/01/12 03:03:16;;;;;;;5.05;2.10;;;;;18.90;99832.00;;;;2059745;28;20238;-52
2023/01/12 03:04:17;;;;;;;4.82;1.90;;;;;18.80;99832.00;;;;2071068;28;20601;-52
2023/01/12 03:05:17;;;;;;;3.17;2.00;;;;;18.90;99846.00;;;;2067915;28;20222;-52
2023/01/12 03:06:18;;;;;;;4.90;2.10;;;;;18.80;99847.00;;;;2054315;28;20544;-51
2023/01/12 03:07:38;;;;;;;3.87;2.00;;;;;18.90;99826.00;;;;2070664;28;20660;-52
2023/01/12 03:08:38;;;;;;;5.07;2.03;;;;;18.80;99811.00;;;;2079459;28;20755;-53
2023/01/12 03:09:47;;;;;;;4.30;1.97;;;;;18.80;99818.00;;;;2078534;28;20205;-53
2023/01/12 03:11:02;;;;;;;5.38;2.25;;;;;18.80;99811.00;;;;2071146;28;20300;-52
2023/01/12 03:12:13;;;;;;;4.43;1.83;;;;;18.80;99804.00;;;;2077249;28;20240;-51
2023/01/12 03:13:14;;;;;;;5.22;2.30;;;;;18.90;99808.00;;;;2070578;28;20248;-52
2023/01/12 03:14:15;;;;;;;5.70;1.92;;;;;18.90;99811.00;;;;2071584;28;20292;-52
2023/01/12 03:15:15;;;;;;;4.67;2.10;;;;;18.80;99802.00;;;;2070468;28;20217;-52
2023/01/12 03:16:18;;;;;;;6.20;2.50;;;;;18.80;99798.00;;;;2060924;28;20218;-51
2023/01/12 03:17:29;;;;;;;5.80;2.33;;;;;18.80;99800.00;;;;2063031;28;20215;-52
2023/01/12 03:18:33;;;;;;;4.65;1.90;;;;;18.80;99800.00;;;;2071498;28;20519;-52
2023/01/12 03:19:33;;;;;;;3.25;1.70;;;;;18.90;99801.00;;;;2071087;28;20741;-52
2023/01/12 03:20:38;;;;;;;3.63;2.00;;;;;18.90;99782.00;;;;2070525;28;20221;-52
2023/01/12 03:21:43;;;;;;;4.78;1.95;;;;;18.80;99796.00;;;;2063336;28;20219;-52
2023/01/12 03:22:44;;;;;;;6.10;2.10;;;;;18.80;99785.00;;;;2061808;28;20229;-53
2023/01/12 03:23:49;;;;;;;4.60;2.30;;;;;18.80;99788.00;;;;2061584;28;20621;-52
2023/01/12 03:24:53;;;;;;;3.80;1.90;;;;;18.80;99778.00;;;;2064278;28;20273;-52
2023/01/12 03:25:54;;;;;;;4.75;2.25;;;;;18.80;99779.00;;;;2061663;28;20219;-52
2023/01/12 03:27:05;;;;;;;4.87;2.27;;;;;18.80;99789.00;;;;2061791;28;20219;-52
2023/01/12 03:28:05;;;;;;;5.57;1.83;;;;;18.80;99771.00;;;;2066151;28;20218;-52
2023/01/12 03:29:11;;;;;;;4.17;2.13;;;;;18.80;99776.00;;;;2062446;28;20606;-52
2023/01/12 03:30:15;;;;;;;5.78;1.95;;;;;18.80;99781.00;;;;2077733;28;20240;-52
2023/01/12 03:31:15;;;;;;;4.15;1.90;;;;;18.80;99772.00;;;;2069317;28;20211;-52
2023/01/12 03:32:17;;;;;;;4.03;1.90;;;;;18.80;99791.00;;;;2068418;28;20313;-52
2023/01/12 03:33:18;;;;;;;3.45;1.67;;;;;18.80;99787.00;;;;2077720;28;20215;-52
2023/01/12 03:34:18;;;;;;;5.00;1.90;;;;;18.80;99769.00;;;;2077577;28;20220;-52
2023/01/12 03:35:18;;;;;;;4.50;1.83;;;;;18.80;99782.00;;;;2076093;28;20305;-52
2023/01/12 03:36:22;;;;;;;3.57;1.70;;;;;18.80;99755.00;;;;2061319;28;20221;-51
2023/01/12 03:37:30;;;;;;;6.07;1.73;;;;;18.80;99774.00;;;;2061971;28;20215;-52
2023/01/12 03:38:33;;;;;;;5.03;1.80;;;;;18.80;99781.00;;;;2062270;28;20680;-56
2023/01/12 03:40:01;;;;;;;5.82;1.85;;;;;18.80;99783.00;;;;2062021;28;20221;-53
2023/01/12 03:41:05;;;;;;;5.70;2.20;;;;;18.80;99777.00;;;;2047708;28;20263;-53
2023/01/12 03:42:11;;;;;;;3.92;1.88;;;;;18.80;99786.00;;;;2060701;28;20301;-52
2023/01/12 03:43:17;;;;;;;4.10;1.70;;;;;18.80;99765.00;;;;2069668;28;20221;-52
2023/01/12 03:44:20;;;;;;;3.92;1.52;;;;;18.80;99783.00;;;;2069227;28;20622;-53
2023/01/12 03:45:26;;;;;;;4.38;1.40;;;;;18.80;99772.00;;;;2063087;28;20350;-52
2023/01/12 03:46:39;;;;;;;7.20;2.03;;;;;18.80;99779.00;;;;2077750;28;20213;-51
2023/01/12 03:47:40;;;;;;;5.43;1.80;;;;;18.80;99767.00;;;;2077980;28;20287;-52
2023/01/12 03:49:00;;;;;;;4.70;2.00;;;;;18.80;99774.00;;;;2061691;28;20334;-52
2023/01/12 03:50:10;;;;;;;6.07;1.95;;;;;18.80;99778.00;;;;2065709;28;20221;-52
2023/01/12 03:51:18;;;;;;;4.57;1.70;;;;;18.80;99771.00;;;;2077997;28;20216;-52
2023/01/12 03:52:18;;;;;;;5.80;1.90;;;;;18.80;99765.00;;;;2076601;28;20228;-52
2023/01/12 03:53:20;;;;;;;3.70;1.60;;;;;18.70;99764.00;;;;2070169;28;20221;-52
2023/01/12 03:54:20;;;;;;;5.15;3.05;;;;;18.80;99750.00;;;;2077089;28;20217;-51
2023/01/12 03:55:22;;;;;;;4.60;2.13;;;;;18.80;99755.00;;;;2061977;28;20211;-52
2023/01/12 03:56:23;;;;;;;6.47;1.80;;;;;18.70;99758.00;;;;2070514;28;20206;-51
2023/01/12 03:57:24;;;;;;;5.30;1.73;;;;;18.70;99753.00;;;;2070322;28;20214;-52
2023/01/12 03:58:24;;;;;;;4.27;1.97;;;;;18.60;99760.00;;;;2070081;28;20218;-52
2023/01/12 03:59:25;;;;;;;2.77;1.70;;;;;18.60;99752.00;;;;2077787;28;20301;-51
2023/01/12 04:00:25;;;;;;;4.83;1.57;;;;;18.70;99751.00;;;;2078165;28;20213;-51
2023/01/12 04:01:25;;;;;;;3.43;1.73;;;;;18.70;99754.00;;;;2070225;28;20242;-51
2023/01/12 04:02:26;;;;;;;3.57;1.60;;;;;18.70;99727.00;;;;2077070;28;20244;-51
2023/01/12 04:03:26;;;;;;;4.13;1.70;;;;;18.70;99747.00;;;;2074769;28;20203;-51
2023/01/12 04:04:26;;;;;;;4.73;1.60;;;;;18.80;99733.00;;;;2061682;28;20706;-52
2023/01/12 04:05:27;;;;;;;4.73;1.80;;;;;18.80;99744.00;;;;2061997;28;20233;-52
2023/01/12 04:06:27;;;;;;;3.87;1.53;;;;;18.70;99731.00;;;;2070149;28;20276;-53
2023/01/12 04:07:28;;;;;;;5.03;1.90;;;;;18.70;99740.00;;;;2070249;28;20223;-52
2023/01/12 04:08:29;;;;;;;3.58;1.50;;;;;18.70;99747.00;;;;2069555;28;20226;-52
2023/01/12 04:09:29;;;;;;;6.63;2.47;;;;;18.70;99744.00;;;;2069852;28;20211;-52
2023/01/12 04:10:30;;;;;;;4.00;2.03;;;;;18.70;99741.00;;;;2070622;28;20210;-52
2023/01/12 04:12:49;;;;;;;3.30;1.63;;;;;18.70;99732.00;;;;2076653;28;20221;-52
2023/01/12 04:13:49;;;;;;;4.67;1.60;;;;;18.70;99733.00;;;;2078788;28;20222;-52
2023/01/12 04:14:49;;;;;;;6.07;1.43;;;;;18.70;99744.00;;;;2078912;28;20270;-51
2023/01/12 04:15:50;;;;;;;3.50;1.40;;;;;18.70;99741.00;;;;2078795;28;20291;-52
2023/01/12 04:16:51;;;;;;;5.20;1.57;;;;;18.70;99738.00;;;;2078324;28;20209;-52
2023/01/12 04:17:51;;;;;;;5.10;1.38;;;;;18.70;99725.00;;;;2070295;28;20213;-52
2023/01/12 04:18:51;;;;;;;2.47;1.53;;;;;18.70;99742.00;;;;2073710;28;20217;-52
2023/01/12 04:19:52;;;;;;;4.00;1.77;;;;;18.70;99739.00;;;;2074498;28;20221;-52
2023/01/12 04:20:52;;;;;;;5.40;1.73;;;;;18.70;99729.00;;;;2078805;28;20205;-51
2023/01/12 04:23:11;;;;;;;4.10;1.60;;;;;18.70;99740.00;;;;2078246;28;20221;-54
2023/01/12 04:24:11;;;;;;;4.03;1.40;;;;;18.60;99723.00;;;;2078465;28;21008;-54
2023/01/12 04:25:15;;;;;;;3.63;1.60;;;;;18.60;99717.00;;;;2070765;28;20585;-51
2023/01/12 04:26:16;;;;;;;4.22;1.50;;;;;18.70;99710.00;;;;2061761;28;20568;-52
2023/01/12 04:27:16;;;;;;;4.72;1.30;;;;;18.60;99723.00;;;;2062356;28;20276;-52
2023/01/12 04:28:17;;;;;;;4.17;1.60;;;;;18.60;99722.00;;;;2070794;28;20214;-52
2023/01/12 04:29:17;;;;;;;3.60;1.40;;;;;18.70;99720.00;;;;2070219;28;20217;-52
2023/01/12 04:30:19;;;;;;;4.20;1.60;;;;;18.70;99711.00;;;;2070789;28;20214;-52
2023/01/12 04:31:19;;;;;;;3.58;1.70;;;;;18.60;99729.00;;;;2070741;28;20216;-52
2023/01/12 04:32:20;;;;;;;4.00;1.87;;;;;18.60;99708.00;;;;2076234;28;20239;-52
2023/01/12 04:33:20;;;;;;;8.17;1.70;;;;;18.70;99723.00;;;;2078212;28;20252;-52
2023/01/12 04:34:20;;;;;;;4.20;1.67;;;;;18.60;99714.00;;;;2077586;28;20669;-51
2023/01/12 04:35:21;;;;;;;5.40;1.97;;;;;18.60;99724.00;;;;2078048;28;20219;-52
2023/01/12 04:36:21;;;;;;;4.40;1.80;;;;;18.60;99712.00;;;;2078889;28;20205;-52
2023/01/12 04:37:22;;;;;;;3.70;1.40;;;;;18.60;99700.00;;;;2077707;28;20295;-52
2023/01/12 04:38:22;;;;;;;4.73;1.50;;;;;18.60;99709.00;;;;2078924;28;20217;-52
2023/01/12 04:39:22;;;;;;;3.83;1.53;;;;;18.60;99716.00;;;;2078862;28;20202;-52
2023/01/12 04:40:23;;;;;;;6.37;2.10;;;;;18.60;99708.00;;;;2078772;28;20252;-52
2023/01/12 04:41:24;;;;;;;5.05;1.80;;;;;18.60;99689.00;;;;2070624;28;20212;-52
2023/01/12 04:43:44;;;;;;;5.90;1.80;;;;;18.60;99700.00;;;;2074813;28;20594;-52
2023/01/12 04:44:45;;;;;;;4.15;1.40;;;;;18.60;99703.00;;;;2077094;28;20395;-51
2023/01/12 04:45:46;;;;;;;4.80;1.60;;;;;18.60;99686.00;;;;2078873;28;20861;-52
2023/01/12 04:46:48;;;;;;;2.42;1.15;;;;;18.60;99686.00;;;;2078894;28;20300;-52
2023/01/12 04:47:48;;;;;;;2.63;1.15;;;;;18.60;99678.00;;;;2077906;28;20217;-52
2023/01/12 04:48:48;;;;;;;4.40;1.37;;;;;18.60;99692.00;;;;2078091;28;20222;-51
2023/01/12 04:49:49;;;;;;;3.83;1.27;;;;;18.60;99699.00;;;;2078617;28;20213;-52
2023/01/12 04:50:49;;;;;;;3.33;1.70;;;;;18.60;99672.00;;;;2078765;28;20217;-52
2023/01/12 04:51:50;;;;;;;3.70;1.20;;;;;18.60;99678.00;;;;2077479;28;20308;-52
2023/01/12 04:52:50;;;;;;;5.93;1.43;;;;;18.60;99668.00;;;;2078699;28;20213;-52
2023/01/12 04:53:50;;;;;;;4.40;1.30;;;;;18.60;99690.00;;;;2078607;28;20229;-52
2023/01/12 04:54:51;;;;;;;3.73;1.40;;;;;18.60;99685.00;;;;2077958;28;20217;-52
2023/01/12 04:55:51;;;;;;;3.87;1.43;;;;;18.60;99667.00;;;;2078725;28;20210;-51
2023/01/12 04:56:51;;;;;;;4.20;1.57;;;;;18.60;99666.00;;;;2078058;28;20221;-51
2023/01/12 04:57:52;;;;;;;3.67;1.40;;;;;18.60;99669.00;;;;2077398;28;20239;-52
2023/01/12 04:58:58;;;;;;;5.20;1.60;;;;;18.60;99661.00;;;;2078003;28;20217;-52
2023/01/12 04:59:59;;;;;;;2.25;1.40;;;;;18.60;99660.00;;;;2078759;28;20656;-51
2023/01/12 05:01:15;;;;;;;5.57;1.43;;;;;18.50;99665.00;;;;2078662;28;20219;-52
2023/01/12 05:02:16;;;;;;;5.63;2.08;;;;;18.60;99651.00;;;;2076994;28;20225;-51
2023/01/12 05:03:16;;;;;;;3.10;1.20;;;;;18.60;99671.00;;;;2078669;28;20213;-51
2023/01/12 05:04:16;;;;;;;3.37;1.10;;;;;18.60;99659.00;;;;2078243;28;20304;-52
2023/01/12 05:05:17;;;;;;;4.03;1.70;;;;;18.60;99651.00;;;;2076867;28;20213;-52
2023/01/12 05:06:17;;;;;;;3.23;1.30;;;;;18.60;99668.00;;;;2070057;28;20591;-52
2023/01/12 05:07:18;;;;;;;4.10;1.53;;;;;18.50;99657.00;;;;2070354;28;20213;-52
2023/01/12 05:10:57;;;;;;;4.40;1.35;;;;;18.60;99658.00;;;;2076694;28;20220;-53
2023/01/12 05:11:59;;;;;;;4.10;1.33;;;;;18.50;99649.00;;;;2077102;28;20228;-52
2023/01/12 05:12:59;;;;;;;4.75;1.80;;;;;18.50;99640.00;;;;2078296;28;20209;-52
2023/01/12 05:14:00;;;;;;;4.00;1.20;;;;;18.60;99634.00;;;;2078550;28;20209;-52
2023/01/12 05:15:02;;;;;;;3.50;1.67;;;;;18.60;99650.00;;;;2071337;28;20213;-52
2023/01/12 05:16:14;;;;;;;4.55;1.40;;;;;18.60;99640.00;;;;2070564;28;20245;-51
2023/01/12 05:17:14;;;;;;;3.33;1.48;;;;;18.50;99630.00;;;;2061736;28;20743;-51
2023/01/12 05:18:15;;;;;;;2.97;1.33;;;;;18.50;99636.00;;;;2069441;28;20222;-52
2023/01/12 05:19:15;;;;;;;5.20;1.80;;;;;18.60;99635.00;;;;2070405;28;20242;-52
2023/01/12 05:20:15;;;;;;;2.80;1.20;;;;;18.60;99632.00;;;;2070417;28;20226;-54
2023/01/12 05:21:16;;;;;;;2.67;1.20;;;;;18.50;99628.00;;;;2070366;28;20227;-52
2023/01/12 05:22:17;;;;;;;2.80;1.20;;;;;18.50;99640.00;;;;2062536;28;20221;-52
2023/01/12 05:23:17;;;;;;;3.53;1.43;;;;;18.50;99626.00;;;;2080904;28;20482;-52
2023/01/12 05:24:17;;;;;;;3.77;1.23;;;;;18.60;99626.00;;;;2083847;28;20216;-52
2023/01/12 05:25:18;;;;;;;4.50;1.20;;;;;18.50;99634.00;;;;2069960;28;20264;-52
2023/01/12 05:26:18;;;;;;;3.47;1.53;;;;;18.60;99623.00;;;;2070221;28;20220;-51
2023/01/12 05:27:19;;;;;;;2.40;1.10;;;;;18.50;99627.00;;;;2070282;28;20218;-52
2023/01/12 05:28:19;;;;;;;3.47;1.40;;;;;18.60;99628.00;;;;2070519;28;20216;-52
2023/01/12 05:29:19;;;;;;;4.93;1.30;;;;;18.50;99636.00;;;;2070441;28;20240;-52
2023/01/12 05:30:20;;;;;;;4.40;1.30;;;;;18.50;99621.00;;;;2070125;28;20352;-53
2023/01/12 05:31:20;;;;;;;2.53;1.37;;;;;18.50;99620.00;;;;2069464;28;20228;-51
2023/01/12 05:32:20;;;;;;;2.60;1.10;;;;;18.60;99609.00;;;;2069166;28;20218;-52
2023/01/12 05:33:21;;;;;;;2.53;1.23;;;;;18.50;99614.00;;;;2070553;28;20709;-52